sensor_id;sensor_type;location;lat;lon;timestamp;pressure;altitude;pressure_sealevel;temperature;humidity
80733;BME280;70130;44.534;18.678;2023-09-08T00:01:00;99433.59;;;16.57;71.76
80733;BME280;70130;44.534;18.678;2023-09-08T00:03:29;99434.75;;;16.56;71.81
80733;BME280;70130;44.534;18.678;2023-09-08T00:05:54;99431.50;;;16.50;71.75
80733;BME280;70130;44.534;18.678;2023-09-08T00:08:20;99433.28;;;16.42;71.92
80733;BME280;70130;44.534;18.678;2023-09-08T00:10:45;99437.53;;;16.43;72.05
80733;BME280;70130;44.534;18.678;2023-09-08T00:13:14;99442.81;;;16.36;72.49
80733;BME280;70130;44.534;18.678;2023-09-08T00:15:40;99433.38;;;16.30;72.29
80733;BME280;70130;44.534;18.678;2023-09-08T00:18:08;99435.81;;;16.35;71.96
80733;BME280;70130;44.534;18.678;2023-09-08T00:20:34;99431.44;;;16.31;72.24
80733;BME280;70130;44.534;18.678;2023-09-08T00:23:00;99444.03;;;16.23;72.51
80733;BME280;70130;44.534;18.678;2023-09-08T00:25:25;99442.03;;;16.20;72.45
80733;BME280;70130;44.534;18.678;2023-09-08T00:27:54;99436.88;;;16.15;72.53
80733;BME280;70130;44.534;18.678;2023-09-08T00:30:22;99438.44;;;16.16;72.36
80733;BME280;70130;44.534;18.678;2023-09-08T00:32:51;99437.56;;;16.12;72.62
80733;BME280;70130;44.534;18.678;2023-09-08T00:35:16;99437.84;;;16.07;72.85
80733;BME280;70130;44.534;18.678;2023-09-08T00:37:42;99440.97;;;15.93;73.10
80733;BME280;70130;44.534;18.678;2023-09-08T00:40:08;99438.00;;;15.98;72.86
80733;BME280;70130;44.534;18.678;2023-09-08T00:42:34;99440.88;;;15.90;73.35
80733;BME280;70130;44.534;18.678;2023-09-08T00:45:02;99443.63;;;15.62;74.64
80733;BME280;70130;44.534;18.678;2023-09-08T00:47:33;99444.75;;;15.61;74.54
80733;BME280;70130;44.534;18.678;2023-09-08T00:49:59;99431.94;;;15.58;74.42
80733;BME280;70130;44.534;18.678;2023-09-08T00:52:43;99431.44;;;15.68;74.16
80733;BME280;70130;44.534;18.678;2023-09-08T00:55:12;99431.22;;;15.61;74.13
80733;BME280;70130;44.534;18.678;2023-09-08T00:57:38;99432.88;;;15.66;74.02
80733;BME280;70130;44.534;18.678;2023-09-08T01:00:04;99429.06;;;15.67;73.90
80733;BME280;70130;44.534;18.678;2023-09-08T01:02:34;99427.94;;;15.68;73.98
80733;BME280;70130;44.534;18.678;2023-09-08T01:05:03;99430.78;;;15.59;74.24
80733;BME280;70130;44.534;18.678;2023-09-08T01:07:31;99430.97;;;15.66;74.00
80733;BME280;70130;44.534;18.678;2023-09-08T01:09:58;99432.81;;;15.62;74.31
80733;BME280;70130;44.534;18.678;2023-09-08T01:12:29;99424.16;;;15.57;74.22
80733;BME280;70130;44.534;18.678;2023-09-08T01:14:55;99417.69;;;15.61;73.98
80733;BME280;70130;44.534;18.678;2023-09-08T01:17:23;99428.44;;;15.58;74.13
80733;BME280;70130;44.534;18.678;2023-09-08T01:19:55;99420.56;;;15.52;73.97
80733;BME280;70130;44.534;18.678;2023-09-08T01:27:57;99427.53;;;15.26;75.26
80733;BME280;70130;44.534;18.678;2023-09-08T01:30:29;99427.09;;;15.24;75.35
80733;BME280;70130;44.534;18.678;2023-09-08T01:32:58;99428.06;;;15.31;74.77
80733;BME280;70130;44.534;18.678;2023-09-08T01:35:24;99421.53;;;15.32;74.73
80733;BME280;70130;44.534;18.678;2023-09-08T01:37:50;99419.41;;;15.26;74.91
80733;BME280;70130;44.534;18.678;2023-09-08T01:40:16;99427.19;;;15.27;74.57
80733;BME280;70130;44.534;18.678;2023-09-08T01:42:47;99423.22;;;15.25;74.86
80733;BME280;70130;44.534;18.678;2023-09-08T01:45:16;99421.22;;;15.22;74.89
80733;BME280;70130;44.534;18.678;2023-09-08T01:47:44;99426.88;;;15.17;74.72
80733;BME280;70130;44.534;18.678;2023-09-08T01:50:13;99422.72;;;15.19;74.63
80733;BME280;70130;44.534;18.678;2023-09-08T01:52:39;99439.50;;;15.12;75.00
80733;BME280;70130;44.534;18.678;2023-09-08T01:55:07;99429.50;;;15.13;75.09
80733;BME280;70130;44.534;18.678;2023-09-08T01:57:36;99435.56;;;15.10;74.75
80733;BME280;70130;44.534;18.678;2023-09-08T02:00:05;99442.69;;;14.90;75.67
80733;BME280;70130;44.534;18.678;2023-09-08T02:02:40;99436.41;;;14.98;75.37
80733;BME280;70130;44.534;18.678;2023-09-08T02:05:07;99440.47;;;14.92;75.64
80733;BME280;70130;44.534;18.678;2023-09-08T02:07:33;99432.69;;;14.91;75.78
80733;BME280;70130;44.534;18.678;2023-09-08T02:09:58;99432.59;;;14.87;75.69
80733;BME280;70130;44.534;18.678;2023-09-08T02:12:24;99437.06;;;14.95;75.27
80733;BME280;70130;44.534;18.678;2023-09-08T02:14:52;99437.66;;;14.89;75.61
80733;BME280;70130;44.534;18.678;2023-09-08T02:17:18;99441.81;;;14.86;75.71
80733;BME280;70130;44.534;18.678;2023-09-08T02:19:44;99435.53;;;14.82;75.95
80733;BME280;70130;44.534;18.678;2023-09-08T02:22:10;99438.25;;;14.70;76.02
80733;BME280;70130;44.534;18.678;2023-09-08T02:24:38;99440.63;;;14.59;76.54
80733;BME280;70130;44.534;18.678;2023-09-08T02:27:07;99433.44;;;14.63;76.54
80733;BME280;70130;44.534;18.678;2023-09-08T02:29:35;99434.31;;;14.67;76.29
80733;BME280;70130;44.534;18.678;2023-09-08T02:32:01;99435.09;;;14.68;75.96
80733;BME280;70130;44.534;18.678;2023-09-08T02:34:27;99435.09;;;14.68;75.78
80733;BME280;70130;44.534;18.678;2023-09-08T02:36:52;99438.59;;;14.56;76.60
80733;BME280;70130;44.534;18.678;2023-09-08T02:39:22;99437.16;;;14.59;76.47
80733;BME280;70130;44.534;18.678;2023-09-08T02:41:49;99436.03;;;14.60;75.89
80733;BME280;70130;44.534;18.678;2023-09-08T02:44:14;99435.69;;;14.49;76.40
80733;BME280;70130;44.534;18.678;2023-09-08T02:46:43;99447.13;;;14.34;77.11
80733;BME280;70130;44.534;18.678;2023-09-08T02:49:12;99439.38;;;14.33;77.10
80733;BME280;70130;44.534;18.678;2023-09-08T02:51:40;99439.00;;;14.22;77.63
80733;BME280;70130;44.534;18.678;2023-09-08T02:54:06;99437.22;;;14.14;77.99
80733;BME280;70130;44.534;18.678;2023-09-08T02:56:32;99439.47;;;14.24;77.58
80733;BME280;70130;44.534;18.678;2023-09-08T02:58:57;99436.31;;;14.22;77.85
80733;BME280;70130;44.534;18.678;2023-09-08T03:01:26;99440.28;;;14.37;77.25
80733;BME280;70130;44.534;18.678;2023-09-08T03:03:54;99433.44;;;14.39;77.10
80733;BME280;70130;44.534;18.678;2023-09-08T03:06:23;99436.78;;;14.36;76.95
80733;BME280;70130;44.534;18.678;2023-09-08T03:08:49;99432.28;;;14.28;77.20
80733;BME280;70130;44.534;18.678;2023-09-08T03:11:15;99423.59;;;14.22;77.78
80733;BME280;70130;44.534;18.678;2023-09-08T03:13:40;99428.13;;;14.18;77.58
80733;BME280;70130;44.534;18.678;2023-09-08T03:16:07;99419.69;;;14.20;77.32
80733;BME280;70130;44.534;18.678;2023-09-08T03:18:34;99430.69;;;14.27;76.91
80733;BME280;70130;44.534;18.678;2023-09-08T03:21:06;99428.13;;;14.18;77.18
80733;BME280;70130;44.534;18.678;2023-09-08T03:23:39;99422.03;;;14.21;77.12
80733;BME280;70130;44.534;18.678;2023-09-08T03:26:05;99424.63;;;14.06;77.60
80733;BME280;70130;44.534;18.678;2023-09-08T03:28:32;99436.06;;;14.03;77.98
80733;BME280;70130;44.534;18.678;2023-09-08T03:31:03;99433.16;;;14.08;77.45
80733;BME280;70130;44.534;18.678;2023-09-08T03:33:31;99428.31;;;14.01;77.57
80733;BME280;70130;44.534;18.678;2023-09-08T03:36:01;99432.84;;;14.09;77.51
80733;BME280;70130;44.534;18.678;2023-09-08T03:38:27;99441.81;;;14.13;77.35
80733;BME280;70130;44.534;18.678;2023-09-08T03:40:56;99433.63;;;14.10;77.44
80733;BME280;70130;44.534;18.678;2023-09-08T03:43:25;99436.88;;;14.03;77.87
80733;BME280;70130;44.534;18.678;2023-09-08T03:45:50;99443.31;;;14.11;77.47
80733;BME280;70130;44.534;18.678;2023-09-08T03:48:19;99436.97;;;14.07;77.54
80733;BME280;70130;44.534;18.678;2023-09-08T03:50:47;99444.28;;;14.06;77.35
80733;BME280;70130;44.534;18.678;2023-09-08T03:53:26;99444.06;;;13.99;77.40
80733;BME280;70130;44.534;18.678;2023-09-08T03:55:54;99439.00;;;13.98;77.47
80733;BME280;70130;44.534;18.678;2023-09-08T03:58:20;99445.50;;;13.97;77.66
80733;BME280;70130;44.534;18.678;2023-09-08T04:00:47;99438.88;;;13.94;77.51
80733;BME280;70130;44.534;18.678;2023-09-08T04:03:12;99436.97;;;13.95;77.48
80733;BME280;70130;44.534;18.678;2023-09-08T04:05:38;99440.31;;;13.92;77.35
80733;BME280;70130;44.534;18.678;2023-09-08T04:08:04;99450.47;;;13.95;77.18
80733;BME280;70130;44.534;18.678;2023-09-08T04:10:33;99448.19;;;13.84;77.62
80733;BME280;70130;44.534;18.678;2023-09-08T04:13:05;99453.69;;;13.88;77.31
80733;BME280;70130;44.534;18.678;2023-09-08T04:15:33;99453.00;;;13.79;77.93
80733;BME280;70130;44.534;18.678;2023-09-08T04:17:59;99452.00;;;13.71;78.08
80733;BME280;70130;44.534;18.678;2023-09-08T04:20:25;99448.63;;;13.74;77.76
80733;BME280;70130;44.534;18.678;2023-09-08T04:22:54;99448.81;;;13.69;78.05
80733;BME280;70130;44.534;18.678;2023-09-08T04:25:19;99447.03;;;13.73;78.00
80733;BME280;70130;44.534;18.678;2023-09-08T04:27:45;99440.81;;;13.61;78.23
80733;BME280;70130;44.534;18.678;2023-09-08T04:30:13;99446.34;;;13.64;78.29
80733;BME280;70130;44.534;18.678;2023-09-08T04:32:39;99440.53;;;13.74;77.76
80733;BME280;70130;44.534;18.678;2023-09-08T04:35:09;99439.72;;;13.74;77.82
80733;BME280;70130;44.534;18.678;2023-09-08T04:37:47;99444.97;;;13.58;78.25
80733;BME280;70130;44.534;18.678;2023-09-08T04:40:13;99440.72;;;13.69;77.64
80733;BME280;70130;44.534;18.678;2023-09-08T04:42:43;99444.22;;;13.70;78.01
80733;BME280;70130;44.534;18.678;2023-09-08T04:45:08;99439.84;;;13.77;77.67
80733;BME280;70130;44.534;18.678;2023-09-08T04:47:39;99447.63;;;13.79;77.54
80733;BME280;70130;44.534;18.678;2023-09-08T04:50:17;99447.03;;;13.73;77.51
80733;BME280;70130;44.534;18.678;2023-09-08T04:52:42;99448.41;;;13.79;77.44
80733;BME280;70130;44.534;18.678;2023-09-08T04:55:09;99450.16;;;13.63;78.16
80733;BME280;70130;44.534;18.678;2023-09-08T04:57:36;99454.13;;;13.78;77.52
80733;BME280;70130;44.534;18.678;2023-09-08T05:00:02;99444.59;;;13.80;77.38
80733;BME280;70130;44.534;18.678;2023-09-08T05:02:28;99452.22;;;13.78;77.53
80733;BME280;70130;44.534;18.678;2023-09-08T05:04:57;99447.97;;;13.90;77.30
80733;BME280;70130;44.534;18.678;2023-09-08T05:07:22;99450.00;;;13.93;76.81
80733;BME280;70130;44.534;18.678;2023-09-08T05:09:48;99455.19;;;13.98;76.69
80733;BME280;70130;44.534;18.678;2023-09-08T05:12:34;99453.84;;;14.04;76.71
80733;BME280;70130;44.534;18.678;2023-09-08T05:15:03;99453.63;;;14.09;76.62
80733;BME280;70130;44.534;18.678;2023-09-08T05:17:37;99456.75;;;13.99;77.05
80733;BME280;70130;44.534;18.678;2023-09-08T05:20:03;99449.47;;;13.99;77.33
80733;BME280;70130;44.534;18.678;2023-09-08T05:22:29;99459.13;;;14.00;77.02
80733;BME280;70130;44.534;18.678;2023-09-08T05:24:54;99463.28;;;13.98;77.27
80733;BME280;70130;44.534;18.678;2023-09-08T05:27:20;99461.47;;;14.02;77.07
80733;BME280;70130;44.534;18.678;2023-09-08T05:29:45;99468.03;;;14.13;76.75
80733;BME280;70130;44.534;18.678;2023-09-08T05:32:12;99462.41;;;14.18;76.49
80733;BME280;70130;44.534;18.678;2023-09-08T05:34:39;99459.28;;;14.28;76.23
80733;BME280;70130;44.534;18.678;2023-09-08T05:37:05;99455.88;;;14.31;76.26
80733;BME280;70130;44.534;18.678;2023-09-08T05:39:32;99451.97;;;14.41;75.95
80733;BME280;70130;44.534;18.678;2023-09-08T05:41:58;99456.25;;;14.42;75.95
80733;BME280;70130;44.534;18.678;2023-09-08T05:44:26;99460.88;;;14.53;75.70
80733;BME280;70130;44.534;18.678;2023-09-08T05:46:54;99459.06;;;14.57;75.67
80733;BME280;70130;44.534;18.678;2023-09-08T05:49:21;99465.84;;;14.63;75.41
80733;BME280;70130;44.534;18.678;2023-09-08T05:51:50;99468.97;;;14.65;75.82
80733;BME280;70130;44.534;18.678;2023-09-08T05:54:17;99471.00;;;14.68;75.51
80733;BME280;70130;44.534;18.678;2023-09-08T05:56:47;99464.78;;;14.80;75.23
80733;BME280;70130;44.534;18.678;2023-09-08T05:59:16;99471.31;;;14.91;75.24
80733;BME280;70130;44.534;18.678;2023-09-08T06:01:45;99472.97;;;14.96;74.54
80733;BME280;70130;44.534;18.678;2023-09-08T06:04:14;99466.91;;;14.99;74.44
80733;BME280;70130;44.534;18.678;2023-09-08T06:06:42;99478.50;;;14.99;74.61
80733;BME280;70130;44.534;18.678;2023-09-08T06:09:10;99468.59;;;15.03;74.47
80733;BME280;70130;44.534;18.678;2023-09-08T06:11:39;99478.38;;;15.08;74.61
80733;BME280;70130;44.534;18.678;2023-09-08T06:14:08;99472.75;;;15.01;74.77
80733;BME280;70130;44.534;18.678;2023-09-08T06:16:39;99468.78;;;15.10;74.55
80733;BME280;70130;44.534;18.678;2023-09-08T06:19:06;99471.38;;;15.19;74.42
80733;BME280;70130;44.534;18.678;2023-09-08T06:21:32;99471.78;;;15.33;73.98
80733;BME280;70130;44.534;18.678;2023-09-08T06:23:58;99467.81;;;15.43;73.75
80733;BME280;70130;44.534;18.678;2023-09-08T06:26:24;99473.22;;;15.43;73.64
80733;BME280;70130;44.534;18.678;2023-09-08T06:28:50;99478.00;;;15.49;73.49
80733;BME280;70130;44.534;18.678;2023-09-08T06:31:15;99479.38;;;15.55;73.77
80733;BME280;70130;44.534;18.678;2023-09-08T06:33:42;99474.25;;;15.66;73.38
80733;BME280;70130;44.534;18.678;2023-09-08T06:36:09;99479.50;;;15.75;73.36
80733;BME280;70130;44.534;18.678;2023-09-08T06:38:34;99477.88;;;15.86;72.63
80733;BME280;70130;44.534;18.678;2023-09-08T06:41:01;99466.00;;;15.90;72.53
80733;BME280;70130;44.534;18.678;2023-09-08T06:43:26;99472.91;;;16.04;72.46
80733;BME280;70130;44.534;18.678;2023-09-08T06:46:04;99468.50;;;16.11;72.36
80733;BME280;70130;44.534;18.678;2023-09-08T06:48:31;99478.19;;;16.28;72.56
80733;BME280;70130;44.534;18.678;2023-09-08T06:50:56;99478.63;;;16.30;72.03
80733;BME280;70130;44.534;18.678;2023-09-08T06:53:23;99477.66;;;16.38;71.90
80733;BME280;70130;44.534;18.678;2023-09-08T06:55:49;99475.84;;;16.42;71.81
80733;BME280;70130;44.534;18.678;2023-09-08T06:58:15;99480.63;;;16.49;72.20
80733;BME280;70130;44.534;18.678;2023-09-08T07:00:42;99483.69;;;16.63;72.14
80733;BME280;70130;44.534;18.678;2023-09-08T07:03:08;99477.25;;;16.67;71.35
80733;BME280;70130;44.534;18.678;2023-09-08T07:05:34;99474.34;;;16.76;71.46
80733;BME280;70130;44.534;18.678;2023-09-08T07:08:00;99474.84;;;16.81;71.42
80733;BME280;70130;44.534;18.678;2023-09-08T07:10:26;99473.41;;;16.88;71.02
80733;BME280;70130;44.534;18.678;2023-09-08T07:12:52;99478.22;;;16.94;70.96
80733;BME280;70130;44.534;18.678;2023-09-08T07:15:18;99472.88;;;16.98;71.07
80733;BME280;70130;44.534;18.678;2023-09-08T07:17:43;99470.66;;;17.03;71.00
80733;BME280;70130;44.534;18.678;2023-09-08T07:20:09;99473.19;;;17.12;70.88
80733;BME280;70130;44.534;18.678;2023-09-08T07:22:37;99465.69;;;17.24;71.08
80733;BME280;70130;44.534;18.678;2023-09-08T07:25:03;99465.88;;;17.32;70.60
80733;BME280;70130;44.534;18.678;2023-09-08T07:27:29;99466.06;;;17.42;70.41
80733;BME280;70130;44.534;18.678;2023-09-08T07:29:55;99470.91;;;17.52;70.64
80733;BME280;70130;44.534;18.678;2023-09-08T07:32:21;99461.03;;;17.60;70.54
80733;BME280;70130;44.534;18.678;2023-09-08T07:34:49;99465.50;;;17.72;70.09
80733;BME280;70130;44.534;18.678;2023-09-08T07:37:21;99466.97;;;17.88;69.91
80733;BME280;70130;44.534;18.678;2023-09-08T07:39:49;99456.78;;;18.04;68.53
80733;BME280;70130;44.534;18.678;2023-09-08T07:42:14;99458.06;;;18.10;68.02
80733;BME280;70130;44.534;18.678;2023-09-08T07:44:40;99458.97;;;18.18;68.19
80733;BME280;70130;44.534;18.678;2023-09-08T07:47:06;99459.53;;;18.31;68.31
80733;BME280;70130;44.534;18.678;2023-09-08T07:49:33;99464.44;;;18.44;67.90
80733;BME280;70130;44.534;18.678;2023-09-08T07:51:59;99466.25;;;18.60;67.62
80733;BME280;70130;44.534;18.678;2023-09-08T07:54:25;99465.47;;;18.59;67.29
80733;BME280;70130;44.534;18.678;2023-09-08T07:56:51;99462.81;;;18.63;67.29
80733;BME280;70130;44.534;18.678;2023-09-08T07:59:16;99459.50;;;18.76;67.92
80733;BME280;70130;44.534;18.678;2023-09-08T08:01:42;99464.63;;;18.81;67.16
80733;BME280;70130;44.534;18.678;2023-09-08T08:04:08;99462.50;;;18.94;66.83
80733;BME280;70130;44.534;18.678;2023-09-08T08:06:33;99454.66;;;18.89;67.14
80733;BME280;70130;44.534;18.678;2023-09-08T08:08:59;99458.03;;;18.82;67.37
80733;BME280;70130;44.534;18.678;2023-09-08T08:11:25;99449.25;;;18.92;67.43
80733;BME280;70130;44.534;18.678;2023-09-08T08:13:51;99458.53;;;19.18;67.26
80733;BME280;70130;44.534;18.678;2023-09-08T08:16:16;99460.28;;;19.33;66.36
80733;BME280;70130;44.534;18.678;2023-09-08T08:18:42;99464.97;;;19.36;66.07
80733;BME280;70130;44.534;18.678;2023-09-08T08:21:07;99453.88;;;19.48;65.66
80733;BME280;70130;44.534;18.678;2023-09-08T08:23:33;99458.53;;;19.48;65.58
80733;BME280;70130;44.534;18.678;2023-09-08T08:25:59;99449.53;;;19.80;64.51
80733;BME280;70130;44.534;18.678;2023-09-08T08:28:25;99454.19;;;19.76;64.48
80733;BME280;70130;44.534;18.678;2023-09-08T08:30:51;99456.13;;;19.76;64.46
80733;BME280;70130;44.534;18.678;2023-09-08T08:33:17;99460.88;;;19.86;63.92
80733;BME280;70130;44.534;18.678;2023-09-08T08:35:53;99466.09;;;20.02;62.45
80733;BME280;70130;44.534;18.678;2023-09-08T08:38:19;99458.28;;;19.97;61.75
80733;BME280;70130;44.534;18.678;2023-09-08T08:40:45;99447.38;;;19.97;61.09
80733;BME280;70130;44.534;18.678;2023-09-08T08:43:11;99454.22;;;20.24;57.18
80733;BME280;70130;44.534;18.678;2023-09-08T08:45:42;99444.22;;;20.32;57.83
80733;BME280;70130;44.534;18.678;2023-09-08T08:48:08;99441.66;;;20.56;57.44
80733;BME280;70130;44.534;18.678;2023-09-08T08:50:35;99435.16;;;20.75;57.04
80733;BME280;70130;44.534;18.678;2023-09-08T08:53:03;99433.72;;;20.99;55.92
80733;BME280;70130;44.534;18.678;2023-09-08T08:55:30;99432.53;;;20.93;56.54
80733;BME280;70130;44.534;18.678;2023-09-08T08:58:14;99437.97;;;20.93;56.39
80733;BME280;70130;44.534;18.678;2023-09-08T09:00:40;99430.72;;;21.18;55.67
80733;BME280;70130;44.534;18.678;2023-09-08T09:03:07;99428.41;;;21.24;55.86
80733;BME280;70130;44.534;18.678;2023-09-08T09:05:36;99432.28;;;21.16;55.57
80733;BME280;70130;44.534;18.678;2023-09-08T09:08:03;99440.84;;;21.18;55.91
80733;BME280;70130;44.534;18.678;2023-09-08T09:10:31;99432.72;;;21.28;55.51
80733;BME280;70130;44.534;18.678;2023-09-08T09:12:57;99437.47;;;21.45;54.89
80733;BME280;70130;44.534;18.678;2023-09-08T09:15:30;99428.50;;;21.48;54.29
80733;BME280;70130;44.534;18.678;2023-09-08T09:18:07;99429.31;;;21.67;54.12
80733;BME280;70130;44.534;18.678;2023-09-08T09:20:33;99426.22;;;21.86;53.67
80733;BME280;70130;44.534;18.678;2023-09-08T09:22:59;99428.97;;;21.93;52.56
80733;BME280;70130;44.534;18.678;2023-09-08T09:25:27;99428.63;;;22.19;51.52
80733;BME280;70130;44.534;18.678;2023-09-08T09:28:01;99426.28;;;22.14;50.84
80733;BME280;70130;44.534;18.678;2023-09-08T09:30:28;99430.97;;;22.07;50.51
80733;BME280;70130;44.534;18.678;2023-09-08T09:33:11;99423.53;;;22.11;50.04
80733;BME280;70130;44.534;18.678;2023-09-08T09:35:50;99415.75;;;22.27;48.66
80733;BME280;70130;44.534;18.678;2023-09-08T09:38:17;99420.03;;;22.31;48.70
80733;BME280;70130;44.534;18.678;2023-09-08T09:40:47;99413.41;;;22.32;48.27
80733;BME280;70130;44.534;18.678;2023-09-08T09:43:14;99413.38;;;22.47;47.50
80733;BME280;70130;44.534;18.678;2023-09-08T09:45:42;99403.97;;;22.72;46.10
80733;BME280;70130;44.534;18.678;2023-09-08T09:48:09;99406.25;;;22.99;45.33
80733;BME280;70130;44.534;18.678;2023-09-08T09:50:40;99401.59;;;22.85;45.59
80733;BME280;70130;44.534;18.678;2023-09-08T09:53:11;99402.69;;;23.09;45.81
80733;BME280;70130;44.534;18.678;2023-09-08T09:55:39;99403.81;;;23.15;44.64
80733;BME280;70130;44.534;18.678;2023-09-08T09:58:05;99402.91;;;23.50;42.68
80733;BME280;70130;44.534;18.678;2023-09-08T10:00:32;99390.34;;;23.56;42.57
80733;BME280;70130;44.534;18.678;2023-09-08T10:02:59;99395.41;;;23.61;41.99
80733;BME280;70130;44.534;18.678;2023-09-08T10:05:26;99394.19;;;23.65;42.66
80733;BME280;70130;44.534;18.678;2023-09-08T10:07:52;99390.03;;;23.98;42.32
80733;BME280;70130;44.534;18.678;2023-09-08T10:10:19;99393.91;;;24.04;41.87
80733;BME280;70130;44.534;18.678;2023-09-08T10:12:46;99393.28;;;23.86;42.67
80733;BME280;70130;44.534;18.678;2023-09-08T10:15:19;99390.59;;;23.79;42.96
80733;BME280;70130;44.534;18.678;2023-09-08T10:17:52;99392.44;;;23.96;42.12
80733;BME280;70130;44.534;18.678;2023-09-08T10:20:19;99385.31;;;24.06;41.71
80733;BME280;70130;44.534;18.678;2023-09-08T10:22:52;99378.22;;;24.08;42.08
80733;BME280;70130;44.534;18.678;2023-09-08T10:25:20;99377.84;;;24.06;42.78
80733;BME280;70130;44.534;18.678;2023-09-08T10:27:47;99369.72;;;23.96;42.29
80733;BME280;70130;44.534;18.678;2023-09-08T10:30:13;99376.44;;;23.88;42.17
80733;BME280;70130;44.534;18.678;2023-09-08T10:32:40;99376.78;;;23.93;42.09
80733;BME280;70130;44.534;18.678;2023-09-08T10:35:07;99366.47;;;24.12;41.24
80733;BME280;70130;44.534;18.678;2023-09-08T10:37:34;99371.53;;;24.17;40.90
80733;BME280;70130;44.534;18.678;2023-09-08T10:40:36;99356.50;;;24.69;40.48
80733;BME280;70130;44.534;18.678;2023-09-08T10:43:08;99352.56;;;24.70;40.81
80733;BME280;70130;44.534;18.678;2023-09-08T10:45:34;99366.69;;;25.06;39.56
80733;BME280;70130;44.534;18.678;2023-09-08T10:48:00;99360.25;;;24.82;39.86
80733;BME280;70130;44.534;18.678;2023-09-08T10:50:31;99348.25;;;24.69;39.28
80733;BME280;70130;44.534;18.678;2023-09-08T10:53:16;99359.75;;;24.57;40.25
80733;BME280;70130;44.534;18.678;2023-09-08T10:55:43;99358.72;;;25.12;36.98
80733;BME280;70130;44.534;18.678;2023-09-08T10:58:17;99335.69;;;25.06;36.84
80733;BME280;70130;44.534;18.678;2023-09-08T11:00:51;99358.50;;;24.99;37.31
80733;BME280;70130;44.534;18.678;2023-09-08T11:03:26;99341.38;;;24.88;37.52
80733;BME280;70130;44.534;18.678;2023-09-08T11:05:53;99333.53;;;24.90;37.92
80733;BME280;70130;44.534;18.678;2023-09-08T11:08:19;99332.09;;;25.09;38.24
80733;BME280;70130;44.534;18.678;2023-09-08T11:10:44;99334.00;;;25.42;37.09
80733;BME280;70130;44.534;18.678;2023-09-08T11:13:10;99323.78;;;25.43;37.19
80733;BME280;70130;44.534;18.678;2023-09-08T11:15:37;99326.13;;;25.44;36.48
80733;BME280;70130;44.534;18.678;2023-09-08T11:18:06;99319.69;;;25.54;36.81
80733;BME280;70130;44.534;18.678;2023-09-08T11:20:32;99324.28;;;25.64;36.95
80733;BME280;70130;44.534;18.678;2023-09-08T11:22:58;99317.69;;;25.58;37.03
80733;BME280;70130;44.534;18.678;2023-09-08T11:25:24;99323.72;;;25.73;35.63
80733;BME280;70130;44.534;18.678;2023-09-08T11:27:50;99311.06;;;25.79;34.86
80733;BME280;70130;44.534;18.678;2023-09-08T11:30:16;99316.44;;;25.86;35.25
80733;BME280;70130;44.534;18.678;2023-09-08T11:32:41;99314.13;;;25.85;35.57
80733;BME280;70130;44.534;18.678;2023-09-08T11:35:09;99314.00;;;25.92;35.23
80733;BME280;70130;44.534;18.678;2023-09-08T11:37:39;99312.81;;;25.93;34.53
80733;BME280;70130;44.534;18.678;2023-09-08T11:40:07;99306.19;;;25.90;35.01
80733;BME280;70130;44.534;18.678;2023-09-08T11:42:40;99312.31;;;25.98;34.87
80733;BME280;70130;44.534;18.678;2023-09-08T11:45:16;99306.91;;;25.94;35.05
80733;BME280;70130;44.534;18.678;2023-09-08T11:47:49;99301.03;;;25.92;36.16
80733;BME280;70130;44.534;18.678;2023-09-08T11:50:15;99306.81;;;25.98;35.14
80733;BME280;70130;44.534;18.678;2023-09-08T11:52:46;99304.19;;;26.14;34.12
80733;BME280;70130;44.534;18.678;2023-09-08T11:55:12;99304.44;;;26.23;34.29
80733;BME280;70130;44.534;18.678;2023-09-08T11:57:43;99305.22;;;26.24;33.53
80733;BME280;70130;44.534;18.678;2023-09-08T12:00:10;99304.47;;;26.19;34.13
80733;BME280;70130;44.534;18.678;2023-09-08T12:02:44;99290.22;;;26.05;34.44
80733;BME280;70130;44.534;18.678;2023-09-08T12:05:12;99290.72;;;26.19;34.10
80733;BME280;70130;44.534;18.678;2023-09-08T12:07:38;99284.84;;;26.17;34.42
80733;BME280;70130;44.534;18.678;2023-09-08T12:10:12;99289.06;;;26.45;34.32
80733;BME280;70130;44.534;18.678;2023-09-08T12:12:50;99289.50;;;26.63;33.98
80733;BME280;70130;44.534;18.678;2023-09-08T12:17:58;99272.53;;;26.85;33.72
80733;BME280;70130;44.534;18.678;2023-09-08T12:20:23;99274.66;;;26.97;33.93
80733;BME280;70130;44.534;18.678;2023-09-08T12:22:52;99263.59;;;27.17;32.76
80733;BME280;70130;44.534;18.678;2023-09-08T12:25:18;99265.75;;;27.25;32.77
80733;BME280;70130;44.534;18.678;2023-09-08T12:27:50;99266.09;;;27.27;33.19
80733;BME280;70130;44.534;18.678;2023-09-08T12:30:22;99277.03;;;27.47;32.90
80733;BME280;70130;44.534;18.678;2023-09-08T12:32:58;99272.47;;;27.73;32.87
80733;BME280;70130;44.534;18.678;2023-09-08T12:35:25;99265.66;;;27.93;31.90
80733;BME280;70130;44.534;18.678;2023-09-08T12:37:58;99262.16;;;27.77;31.96
80733;BME280;70130;44.534;18.678;2023-09-08T12:40:33;99260.22;;;27.25;32.21
80733;BME280;70130;44.534;18.678;2023-09-08T12:42:59;99257.28;;;26.80;33.09
80733;BME280;70130;44.534;18.678;2023-09-08T12:45:25;99264.09;;;26.56;33.77
80733;BME280;70130;44.534;18.678;2023-09-08T12:47:51;99256.69;;;26.53;33.14
80733;BME280;70130;44.534;18.678;2023-09-08T12:50:17;99256.00;;;26.85;32.81
80733;BME280;70130;44.534;18.678;2023-09-08T12:52:46;99255.66;;;27.19;32.55
80733;BME280;70130;44.534;18.678;2023-09-08T12:55:12;99244.81;;;27.44;32.18
80733;BME280;70130;44.534;18.678;2023-09-08T12:57:37;99248.97;;;27.68;32.04
80733;BME280;70130;44.534;18.678;2023-09-08T13:00:12;99248.41;;;27.89;31.85
80733;BME280;70130;44.534;18.678;2023-09-08T13:02:39;99253.31;;;27.98;30.39